Time;durP1;ratioP1;P1;durP2;ratioP2;P2;SDS_P1;SDS_P2;PMS_P1;PMS_P2;Temp;Humidity;BMP_temperature;BMP_pressure;BME280_temperature;BME280_humidity;BME280_pressure;Samples;Min_cycle;Max_cycle;Signal;HPM_P1;HPM_P2
2022/04/03 00:02:39;;;;;;;13.47;11.60;;;;;;;-1.62;100.00;94325.22;4957062;28;20189;-66
2022/04/03 00:05:26;;;;;;;13.67;12.30;;;;;;;-1.60;100.00;94336.31;4955631;28;20232;-66
2022/04/03 00:08:13;;;;;;;13.43;12.03;;;;;;;-1.66;100.00;94338.63;4972325;28;20319;-66
2022/04/03 00:10:59;;;;;;;13.67;12.20;;;;;;;-1.59;100.00;94338.59;4956410;28;20197;-65
2022/04/03 00:13:45;;;;;;;14.90;13.27;;;;;;;-1.61;100.00;94334.78;4971431;28;20196;-66
2022/04/03 00:16:32;;;;;;;14.73;13.13;;;;;;;-1.57;100.00;94338.19;4969800;28;20587;-66
2022/04/03 00:19:18;;;;;;;14.70;13.03;;;;;;;-1.61;100.00;94329.41;4954905;28;20196;-66
2022/04/03 00:22:04;;;;;;;13.53;12.13;;;;;;;-1.81;100.00;94325.75;4951854;28;20197;-65
2022/04/03 00:24:50;;;;;;;14.73;13.17;;;;;;;-1.83;100.00;94334.16;4952983;29;20190;-66
2022/04/03 00:27:36;;;;;;;15.97;12.17;;;;;;;-1.79;100.00;94344.84;4949729;28;20208;-66
2022/04/03 00:30:22;;;;;;;14.43;13.00;;;;;;;-1.87;100.00;94344.13;4971317;28;20215;-66
2022/04/03 00:33:09;;;;;;;15.03;13.47;;;;;;;-1.82;100.00;94349.09;4964691;28;20216;-66
2022/04/03 00:35:54;;;;;;;15.57;13.97;;;;;;;-1.78;100.00;94349.81;4955101;28;20197;-66
2022/04/03 00:38:40;;;;;;;15.27;13.67;;;;;;;-1.82;100.00;94345.63;4977971;28;20200;-65
2022/04/03 00:41:26;;;;;;;14.83;13.33;;;;;;;-1.83;100.00;94352.88;4970614;28;20184;-66
2022/04/03 00:44:12;;;;;;;16.77;14.97;;;;;;;-1.79;100.00;94356.31;4959252;28;20189;-65
2022/04/03 00:46:59;;;;;;;17.13;15.17;;;;;;;-1.85;100.00;94357.13;4941385;28;20224;-66
2022/04/03 00:49:45;;;;;;;16.40;14.43;;;;;;;-1.79;100.00;94360.91;4951421;28;20197;-66
2022/04/03 00:52:32;;;;;;;15.53;13.97;;;;;;;-1.78;100.00;94360.50;4951656;29;20201;-65
2022/04/03 00:55:18;;;;;;;16.77;14.90;;;;;;;-1.71;100.00;94359.69;4955774;28;20295;-66
2022/04/03 00:58:06;;;;;;;18.60;16.00;;;;;;;-1.75;100.00;94364.31;4952777;28;20255;-66
2022/04/03 01:00:52;;;;;;;17.30;15.47;;;;;;;-1.57;100.00;94356.94;4956243;28;20568;-65
2022/04/03 01:03:38;;;;;;;18.10;15.70;;;;;;;-1.55;100.00;94355.41;4942610;28;20220;-66
2022/04/03 01:06:24;;;;;;;17.93;14.63;;;;;;;-1.68;100.00;94354.31;4969000;28;20710;-66
2022/04/03 01:09:10;;;;;;;16.70;14.13;;;;;;;-1.77;100.00;94358.59;4971722;28;20294;-66
2022/04/03 01:11:56;;;;;;;17.73;14.57;;;;;;;-1.68;100.00;94364.28;4970179;28;20205;-66
2022/04/03 01:14:43;;;;;;;15.27;13.67;;;;;;;-1.73;100.00;94362.03;4971478;28;20192;-66
2022/04/03 01:17:29;;;;;;;16.20;14.37;;;;;;;-1.78;100.00;94360.50;4969063;28;20300;-65
2022/04/03 01:20:15;;;;;;;16.70;14.20;;;;;;;-1.70;100.00;94353.97;4961385;28;20204;-66
2022/04/03 01:23:01;;;;;;;16.47;13.80;;;;;;;-1.82;100.00;94349.09;4954214;28;20213;-66
2022/04/03 01:25:47;;;;;;;16.07;14.33;;;;;;;-1.68;100.00;94369.63;4944573;28;20312;-65
2022/04/03 01:28:34;;;;;;;17.83;14.00;;;;;;;-1.77;100.00;94363.94;4948250;28;20189;-66
2022/04/03 01:31:20;;;;;;;15.87;13.70;;;;;;;-1.85;100.00;94357.88;4955965;28;20204;-66
2022/04/03 01:34:05;;;;;;;15.10;13.50;;;;;;;-1.90;100.00;94362.88;4968950;28;20259;-66
2022/04/03 01:36:51;;;;;;;17.10;14.53;;;;;;;-1.90;100.00;94366.31;4948062;28;20213;-65
2022/04/03 01:39:37;;;;;;;15.70;13.97;;;;;;;-1.89;100.00;94372.44;4970623;28;20205;-66
2022/04/03 01:42:24;;;;;;;15.40;13.57;;;;;;;-1.76;100.00;94370.81;4952875;28;20706;-66
2022/04/03 01:45:10;;;;;;;16.40;14.30;;;;;;;-1.85;100.00;94371.25;4958760;28;20216;-66
2022/04/03 01:47:56;;;;;;;18.93;13.70;;;;;;;-1.84;100.00;94377.38;4954922;28;20221;-66
2022/04/03 01:50:42;;;;;;;16.97;13.87;;;;;;;-1.80;100.00;94378.13;4948859;28;20201;-66
2022/04/03 01:53:28;;;;;;;15.97;13.93;;;;;;;-1.81;100.00;94373.91;4956473;28;20193;-68
2022/04/03 01:56:14;;;;;;;16.80;13.77;;;;;;;-1.77;100.00;94380.00;4949040;28;20204;-67
2022/04/03 01:59:03;;;;;;;21.13;15.90;;;;;;;-1.52;100.00;94402.03;4963189;28;20277;-66
2022/04/03 02:01:49;;;;;;;17.23;14.33;;;;;;;-1.78;100.00;94386.53;4964701;28;20197;-66
2022/04/03 02:04:35;;;;;;;18.83;14.93;;;;;;;-1.83;100.00;94379.66;4955921;28;20771;-66
2022/04/03 02:07:21;;;;;;;16.73;14.57;;;;;;;-1.90;100.00;94395.00;4969987;28;20264;-66
2022/04/03 02:10:09;;;;;;;17.07;15.07;;;;;;;-1.75;100.00;94385.75;4959901;28;20205;-66
2022/04/03 02:12:54;;;;;;;18.20;15.40;;;;;;;-1.84;100.00;94399.53;4942823;29;20213;-66
2022/04/03 02:15:41;;;;;;;21.57;16.70;;;;;;;-1.81;100.00;94384.59;4962665;28;20189;-66
2022/04/03 02:18:26;;;;;;;23.93;17.93;;;;;;;-1.68;100.00;94383.03;4948234;28;20254;-66
2022/04/03 02:21:12;;;;;;;21.47;17.70;;;;;;;-1.68;100.00;94388.38;4969638;28;20212;-66
2022/04/03 02:23:58;;;;;;;21.67;19.03;;;;;;;-1.74;100.00;94387.25;4936155;29;20200;-66
2022/04/03 02:26:44;;;;;;;23.27;20.10;;;;;;;-1.72;100.00;94390.31;4944365;28;20256;-66
2022/04/03 02:29:30;;;;;;;22.87;19.23;;;;;;;-1.63;100.00;94401.34;4969472;28;20705;-68
2022/04/03 02:32:18;;;;;;;24.70;19.80;;;;;;;-1.63;100.00;94391.38;4970058;28;20577;-66
2022/04/03 02:35:06;;;;;;;25.70;20.73;;;;;;;-1.71;100.00;94397.94;4969719;28;20265;-67
2022/04/03 02:37:53;;;;;;;23.43;20.00;;;;;;;-1.64;100.00;94405.16;4968744;28;20221;-68
2022/04/03 02:40:38;;;;;;;25.20;20.80;;;;;;;-1.74;100.00;94403.31;4954622;28;20658;-66
2022/04/03 02:43:24;;;;;;;25.87;20.63;;;;;;;-1.70;100.00;94406.75;4970994;28;20236;-66
2022/04/03 02:46:10;;;;;;;25.77;20.13;;;;;;;-1.80;100.00;94407.56;4961033;28;20549;-66
2022/04/03 02:48:57;;;;;;;27.10;20.07;;;;;;;-1.75;100.00;94405.22;4952661;28;20189;-66
2022/04/03 02:51:43;;;;;;;22.03;17.70;;;;;;;-1.78;100.00;94410.63;4952494;28;20201;-66
2022/04/03 02:54:28;;;;;;;22.37;17.73;;;;;;;-1.80;100.00;94407.56;4980395;28;20197;-66
2022/04/03 02:57:15;;;;;;;21.37;18.23;;;;;;;-1.84;100.00;94407.56;4965781;28;20690;-66
2022/04/03 03:00:02;;;;;;;25.20;19.33;;;;;;;-1.94;100.00;94413.75;4973662;28;20293;-66
2022/04/03 03:02:49;;;;;;;20.80;18.30;;;;;;;-1.93;100.00;94415.25;4973195;28;20189;-66
2022/04/03 03:05:35;;;;;;;22.40;18.43;;;;;;;-1.81;100.00;94425.53;4957633;28;20276;-66
2022/04/03 03:08:21;;;;;;;21.90;19.13;;;;;;;-1.80;100.00;94418.25;4955855;28;20193;-65
2022/04/03 03:11:07;;;;;;;27.70;19.13;;;;;;;-1.77;100.00;94420.16;4955519;28;20284;-64
2022/04/03 03:13:53;;;;;;;23.03;18.77;;;;;;;-1.68;100.00;94413.22;4979497;28;20193;-65
2022/04/03 03:16:39;;;;;;;21.73;17.67;;;;;;;-1.72;100.00;94414.38;4957374;28;20212;-65
2022/04/03 03:19:25;;;;;;;22.27;18.70;;;;;;;-1.78;100.00;94410.63;4972239;28;20254;-65
2022/04/03 03:22:11;;;;;;;22.40;17.63;;;;;;;-1.85;100.00;94416.00;4970890;28;20314;-66
2022/04/03 03:24:57;;;;;;;21.80;18.67;;;;;;;-1.82;100.00;94407.94;4957921;28;20193;-66
2022/04/03 03:27:43;;;;;;;22.63;18.63;;;;;;;-1.73;100.00;94420.91;4962257;28;20217;-65
2022/04/03 03:30:29;;;;;;;23.20;18.50;;;;;;;-1.78;100.00;94416.69;4958760;28;20196;-66
2022/04/03 03:33:15;;;;;;;22.20;18.13;;;;;;;-1.80;100.00;94410.22;4971855;28;20197;-66
2022/04/03 03:36:01;;;;;;;23.93;18.70;;;;;;;-1.69;100.00;94413.59;4970717;28;20193;-67
2022/04/03 03:38:47;;;;;;;20.97;17.10;;;;;;;-1.68;100.00;94421.25;4927234;28;20260;-66
2022/04/03 03:41:33;;;;;;;24.60;18.90;;;;;;;-1.74;100.00;94416.69;4972027;28;20259;-66
2022/04/03 03:44:19;;;;;;;20.93;17.80;;;;;;;-1.71;100.00;94430.06;4965946;28;20370;-66
2022/04/03 03:47:05;;;;;;;22.40;17.17;;;;;;;-1.75;100.00;94436.59;4941660;28;20220;-66
2022/04/03 03:49:53;;;;;;;20.80;17.77;;;;;;;-1.74;100.00;94430.06;4954125;28;20241;-67
2022/04/03 03:52:38;;;;;;;21.80;17.27;;;;;;;-1.80;100.00;94440.41;4958555;28;20202;-67
2022/04/03 03:55:24;;;;;;;21.00;18.27;;;;;;;-1.74;100.00;94438.09;4972808;28;20189;-66
2022/04/03 03:58:10;;;;;;;22.50;18.47;;;;;;;-1.67;100.00;94435.38;4970499;28;20201;-66
2022/04/03 04:00:56;;;;;;;19.63;17.30;;;;;;;-1.75;100.00;94445.34;4957035;28;20196;-66
2022/04/03 04:03:42;;;;;;;19.77;17.07;;;;;;;-1.64;100.00;94445.31;4971696;28;20256;-66
2022/04/03 04:06:28;;;;;;;17.83;15.43;;;;;;;-1.62;100.00;94451.03;4954041;28;20710;-67
2022/04/03 04:09:14;;;;;;;20.93;17.53;;;;;;;-1.72;100.00;94451.84;4934403;28;20202;-67
2022/04/03 04:12:00;;;;;;;20.83;17.60;;;;;;;-1.84;100.00;94455.75;4964276;28;20268;-66
2022/04/03 04:14:45;;;;;;;21.87;17.43;;;;;;;-1.71;100.00;94456.03;4977703;28;20289;-67
2022/04/03 04:17:52;;;;;;;21.77;17.40;;;;;;;-1.77;100.00;94449.59;4964496;28;20228;-67
2022/04/03 04:20:39;;;;;;;19.77;16.40;;;;;;;-1.90;100.00;94456.53;4937546;29;20201;-67
2022/04/03 04:23:25;;;;;;;22.03;17.53;;;;;;;-1.83;100.00;94459.94;4938274;29;20194;-66
2022/04/03 04:26:13;;;;;;;19.83;16.70;;;;;;;-1.79;100.00;94462.59;4955964;28;20221;-67
2022/04/03 04:28:59;;;;;;;21.30;16.63;;;;;;;-1.84;100.00;94463.00;4953817;28;20245;-66
2022/04/03 04:31:45;;;;;;;19.60;16.57;;;;;;;-1.67;100.00;94464.84;4952807;28;20212;-67
2022/04/03 04:34:31;;;;;;;20.77;16.90;;;;;;;-1.67;100.00;94462.16;4961144;28;20192;-67
2022/04/03 04:37:18;;;;;;;21.90;17.20;;;;;;;-1.59;100.00;94475.13;4954883;28;20279;-67
2022/04/03 04:40:05;;;;;;;23.63;17.43;;;;;;;-1.65;100.00;94457.19;4958302;28;20229;-66
2022/04/03 04:42:51;;;;;;;21.40;16.30;;;;;;;-1.63;100.00;94466.34;4955173;28;20680;-67
2022/04/03 04:45:37;;;;;;;20.30;16.10;;;;;;;-1.67;100.00;94476.31;4961790;28;20253;-66
2022/04/03 04:48:23;;;;;;;18.77;15.77;;;;;;;-1.79;100.00;94478.66;4955594;28;20231;-67
2022/04/03 04:51:09;;;;;;;20.73;16.17;;;;;;;-1.77;100.00;94481.72;4955287;28;20256;-67
2022/04/03 04:53:55;;;;;;;20.90;16.30;;;;;;;-1.91;100.00;94476.41;4965345;28;20189;-67
2022/04/03 04:56:41;;;;;;;19.80;16.03;;;;;;;-1.99;100.00;94483.69;4951315;29;20663;-67
2022/04/03 04:59:27;;;;;;;20.53;16.10;;;;;;;-1.88;100.00;94481.75;4924704;28;20201;-66
2022/04/03 05:02:13;;;;;;;17.57;15.13;;;;;;;-1.85;100.00;94486.31;4965888;28;20639;-66
2022/04/03 05:04:59;;;;;;;21.33;14.07;;;;;;;-1.76;100.00;94485.91;4970815;28;20197;-66
2022/04/03 05:07:46;;;;;;;17.43;14.37;;;;;;;-1.76;100.00;94491.25;4942167;28;20849;-66
2022/04/03 05:10:32;;;;;;;19.63;15.23;;;;;;;-1.55;100.00;94486.59;4951855;28;20232;-66
2022/04/03 05:13:18;;;;;;;16.63;14.47;;;;;;;-1.49;100.00;94482.34;4942003;28;20223;-66
2022/04/03 05:16:04;;;;;;;18.30;14.47;;;;;;;-1.51;100.00;94484.63;4969635;28;20846;-67
2022/04/03 05:18:50;;;;;;;15.83;14.13;;;;;;;-1.43;100.00;94488.81;4966690;28;20619;-66
2022/04/03 05:21:36;;;;;;;17.43;14.87;;;;;;;-1.41;100.00;94493.78;4965176;28;20646;-66
2022/04/03 05:24:22;;;;;;;16.37;13.67;;;;;;;-1.71;100.00;94498.88;4954866;28;20224;-66
2022/04/03 05:27:07;;;;;;;17.57;14.53;;;;;;;-1.50;100.00;94504.91;4954635;28;20225;-64
2022/04/03 05:29:55;;;;;;;14.83;13.23;;;;;;;-1.51;100.00;94505.31;4954639;28;20220;-64
2022/04/03 05:32:41;;;;;;;16.63;13.77;;;;;;;-1.44;100.00;94515.97;4966831;28;20279;-64
2022/04/03 05:35:27;;;;;;;17.20;14.17;;;;;;;-1.55;100.00;94515.25;4971632;28;20549;-64
2022/04/03 05:38:13;;;;;;;17.40;14.23;;;;;;;-1.46;100.00;94512.94;4971471;28;20197;-65
2022/04/03 05:40:59;;;;;;;16.57;13.67;;;;;;;-1.46;100.00;94511.00;4969892;28;20193;-64
2022/04/03 05:43:44;;;;;;;15.77;12.97;;;;;;;-1.31;100.00;94515.13;4962659;28;20200;-64
2022/04/03 05:46:30;;;;;;;17.37;15.03;;;;;;;-1.03;100.00;94524.94;4967094;28;20221;-65
2022/04/03 05:49:17;;;;;;;17.87;14.77;;;;;;;-1.11;100.00;94520.78;4953422;28;20252;-65
2022/04/03 05:52:04;;;;;;;16.87;14.63;;;;;;;-1.23;100.00;94522.00;4967434;28;20197;-66
2022/04/03 05:54:50;;;;;;;17.93;14.33;;;;;;;-1.08;100.00;94529.94;4937153;28;20197;-66
2022/04/03 05:57:37;;;;;;;18.87;14.27;;;;;;;-1.35;100.00;94530.47;4960670;28;20228;-66
2022/04/03 06:00:23;;;;;;;16.60;14.23;;;;;;;-1.11;100.00;94536.09;4962633;28;20233;-66
2022/04/03 06:03:09;;;;;;;19.63;16.40;;;;;;;-1.08;100.00;94533.38;4967338;28;20623;-66
2022/04/03 06:05:55;;;;;;;18.53;14.63;;;;;;;-0.92;100.00;94541.72;4951858;28;20232;-66
2022/04/03 06:08:41;;;;;;;16.13;14.00;;;;;;;-1.16;100.00;94539.16;4950831;28;20234;-66
2022/04/03 06:11:27;;;;;;;20.93;16.63;;;;;;;-1.02;100.00;94537.19;4945732;28;20284;-66
2022/04/03 06:14:13;;;;;;;18.57;15.30;;;;;;;-1.05;100.00;94550.59;4960994;28;20193;-66
2022/04/03 06:16:59;;;;;;;18.43;15.57;;;;;;;-0.97;100.00;94549.41;4937958;28;20249;-66
2022/04/03 06:19:45;;;;;;;19.70;17.13;;;;;;;-0.94;100.00;94557.44;4960871;28;20233;-65
2022/04/03 06:22:31;;;;;;;20.13;16.97;;;;;;;-0.88;100.00;94561.22;4969491;28;20208;-66
2022/04/03 06:25:17;;;;;;;19.17;15.67;;;;;;;-0.99;100.00;94562.44;4967473;28;20709;-66
2022/04/03 06:28:03;;;;;;;21.00;16.60;;;;;;;-1.05;100.00;94567.44;4973248;28;20212;-66
2022/04/03 06:30:49;;;;;;;18.50;16.03;;;;;;;-0.70;100.00;94566.47;4972498;28;20283;-66
2022/04/03 06:33:36;;;;;;;18.83;16.00;;;;;;;-0.81;100.00;94581.84;4986308;28;20212;-66
2022/04/03 06:36:21;;;;;;;18.33;14.83;;;;;;;-0.97;100.00;94571.63;4970997;28;20217;-66
2022/04/03 06:39:07;;;;;;;18.90;14.87;;;;;;;-0.88;100.00;94571.19;4973578;28;20196;-66
2022/04/03 06:41:53;;;;;;;24.13;15.07;;;;;;;-0.89;100.00;94575.78;4969571;28;20197;-66
2022/04/03 06:44:39;;;;;;;25.37;15.47;;;;;;;-0.89;100.00;94593.75;4967066;28;20204;-66
2022/04/03 06:47:25;;;;;;;18.40;14.60;;;;;;;-1.04;100.00;94578.91;4951440;28;20227;-67
2022/04/03 06:50:12;;;;;;;18.77;15.40;;;;;;;-0.79;100.00;94587.56;4972392;28;20216;-64
2022/04/03 06:52:58;;;;;;;17.70;15.00;;;;;;;-0.56;100.00;94595.88;4973656;28;20335;-64
2022/04/03 06:55:44;;;;;;;21.67;14.60;;;;;;;-0.38;100.00;94594.59;4973568;28;20228;-64
2022/04/03 06:58:29;;;;;;;15.47;13.40;;;;;;;-0.05;100.00;94587.78;4970616;28;21060;-64
2022/04/03 07:01:15;;;;;;;15.60;13.80;;;;;;;-0.16;100.00;94597.88;4969374;28;20194;-64
2022/04/03 07:04:02;;;;;;;16.93;13.53;;;;;;;-0.17;100.00;94601.72;4946327;28;20197;-65
2022/04/03 07:06:48;;;;;;;15.17;13.03;;;;;;;-0.27;100.00;94594.50;4955446;28;20229;-64
2022/04/03 07:09:40;;;;;;;14.50;12.40;;;;;;;-0.23;100.00;94595.22;4977612;28;20592;-64
2022/04/03 07:12:26;;;;;;;16.07;12.77;;;;;;;-0.07;100.00;94600.88;4951297;28;20197;-64
2022/04/03 07:15:13;;;;;;;15.47;12.07;;;;;;;0.03;100.00;94604.59;4958136;28;20187;-64
2022/04/03 07:17:59;;;;;;;13.83;11.57;;;;;;;0.27;100.00;94603.63;4946735;29;20639;-65
2022/04/03 07:20:48;;;;;;;13.30;11.43;;;;;;;0.38;100.00;94605.03;4966331;28;20279;-67
2022/04/03 07:23:33;;;;;;;18.63;12.73;;;;;;;0.79;100.00;94610.34;4974086;28;20689;-67
2022/04/03 07:26:19;;;;;;;14.20;10.77;;;;;;;0.59;100.00;94612.13;4957452;28;20232;-65
2022/04/03 07:29:05;;;;;;;13.47;10.57;;;;;;;0.77;100.00;94615.38;4956973;28;20363;-65
2022/04/03 07:31:51;;;;;;;12.30;9.83;;;;;;;1.61;100.00;94608.16;4971347;28;20197;-64
2022/04/03 07:34:37;;;;;;;13.23;10.67;;;;;;;2.00;95.46;94616.38;4970511;28;20275;-64
2022/04/03 07:37:23;;;;;;;13.13;9.83;;;;;;;2.21;92.99;94608.72;4965920;28;20209;-65
2022/04/03 07:40:11;;;;;;;10.17;8.90;;;;;;;2.43;94.80;94627.97;4957436;28;20201;-65
2022/04/03 07:42:57;;;;;;;9.63;8.67;;;;;;;2.24;90.13;94626.00;4954038;28;20602;-65
2022/04/03 07:45:44;;;;;;;10.13;9.07;;;;;;;1.88;90.38;94617.72;4959290;28;20335;-65
2022/04/03 07:48:29;;;;;;;11.63;8.57;;;;;;;1.34;93.18;94626.94;4953562;28;20201;-65
2022/04/03 07:51:15;;;;;;;12.67;9.23;;;;;;;1.36;98.99;94630.00;4950657;28;20198;-65
2022/04/03 07:54:01;;;;;;;10.53;9.03;;;;;;;0.87;97.49;94634.06;4953498;29;20225;-65
2022/04/03 07:56:47;;;;;;;13.97;9.37;;;;;;;1.10;100.00;94639.53;4954343;28;20232;-65
2022/04/03 07:59:34;;;;;;;10.77;9.30;;;;;;;0.97;100.00;94646.63;4952956;29;20636;-65
2022/04/03 08:02:20;;;;;;;12.23;9.80;;;;;;;0.90;100.00;94645.97;4963202;28;20197;-65
2022/04/03 08:05:07;;;;;;;12.80;9.47;;;;;;;0.97;100.00;94643.94;4953625;28;20192;-64
2022/04/03 08:07:55;;;;;;;10.70;9.27;;;;;;;1.07;100.00;94650.34;4951284;29;20300;-65
2022/04/03 08:10:41;;;;;;;9.67;8.67;;;;;;;1.16;100.00;94646.00;4969062;28;20288;-65
2022/04/03 08:13:27;;;;;;;11.37;10.17;;;;;;;1.54;100.00;94652.06;4957069;28;20193;-64
2022/04/03 08:16:14;;;;;;;16.23;10.13;;;;;;;1.67;98.25;94646.88;4972022;28;20308;-65
2022/04/03 08:19:03;;;;;;;12.90;8.97;;;;;;;2.00;95.63;94648.72;4970639;28;20698;-65
2022/04/03 08:21:49;;;;;;;11.17;9.53;;;;;;;2.75;92.83;94647.03;4963195;28;20202;-65
2022/04/03 08:24:34;;;;;;;10.73;9.60;;;;;;;2.89;88.34;94651.41;4952888;28;20681;-65
2022/04/03 08:27:20;;;;;;;10.47;8.90;;;;;;;3.10;88.09;94659.88;4970746;28;20690;-65
2022/04/03 08:30:07;;;;;;;13.33;10.07;;;;;;;2.71;86.13;94659.06;4957645;28;20193;-65
2022/04/03 08:32:53;;;;;;;13.07;9.70;;;;;;;2.57;88.48;94653.91;4954401;28;20197;-65
2022/04/03 08:35:40;;;;;;;10.93;9.33;;;;;;;2.41;91.69;94662.66;4963303;28;20256;-65
2022/04/03 08:38:26;;;;;;;10.63;9.43;;;;;;;2.76;87.30;94664.75;4950159;28;20255;-65
2022/04/03 08:41:12;;;;;;;11.67;10.00;;;;;;;3.31;85.64;94664.84;4954784;28;20196;-65
2022/04/03 08:43:58;;;;;;;12.10;10.20;;;;;;;3.53;83.27;94667.84;4971824;28;20307;-65
2022/04/03 08:46:47;;;;;;;12.37;9.90;;;;;;;4.19;80.02;94665.59;4969963;28;20640;-65
2022/04/03 08:49:36;;;;;;;11.57;9.20;;;;;;;4.18;78.10;94666.03;4970466;28;20603;-65
2022/04/03 08:52:22;;;;;;;11.17;9.80;;;;;;;3.41;79.95;94666.56;4969985;28;20238;-65
2022/04/03 08:55:09;;;;;;;11.23;9.40;;;;;;;2.29;85.94;94672.06;4957522;28;20733;-65
2022/04/03 08:57:55;;;;;;;10.73;8.87;;;;;;;1.67;89.65;94687.25;4970227;28;20221;-65
2022/04/03 09:00:41;;;;;;;10.53;9.47;;;;;;;1.90;96.58;94677.28;4957005;28;20189;-65
2022/04/03 09:03:27;;;;;;;10.00;9.00;;;;;;;2.14;94.49;94672.72;4970638;28;20201;-64
2022/04/03 09:06:15;;;;;;;10.23;9.13;;;;;;;2.44;89.70;94686.84;4949969;28;20227;-65
2022/04/03 09:09:02;;;;;;;11.77;9.67;;;;;;;3.19;88.88;94680.91;4940263;28;20298;-65
2022/04/03 09:12:11;;;;;;;11.33;8.43;;;;;;;2.75;86.88;94676.69;4964254;28;20193;-65
2022/04/03 09:14:57;;;;;;;10.27;8.63;;;;;;;2.21;84.65;94669.91;4981496;28;20201;-65
2022/04/03 09:17:49;;;;;;;10.37;8.10;;;;;;;2.42;85.38;94686.50;4970657;28;20607;-64
2022/04/03 09:20:40;;;;;;;9.83;8.37;;;;;;;2.80;81.71;94684.31;4968325;28;20200;-65
2022/04/03 09:23:26;;;;;;;9.80;8.00;;;;;;;3.36;81.56;94685.94;4972158;28;20280;-65
2022/04/03 09:26:16;;;;;;;11.20;7.67;;;;;;;3.73;80.93;94690.94;4955744;28;20232;-65
2022/04/03 09:29:09;;;;;;;8.90;7.77;;;;;;;3.71;81.53;94689.88;4969421;28;20646;-65
2022/04/03 09:31:59;;;;;;;9.50;7.87;;;;;;;4.20;74.74;94694.19;4970306;28;20749;-65
2022/04/03 09:34:46;;;;;;;8.87;7.57;;;;;;;3.23;77.29;94693.13;4966777;28;20619;-65
2022/04/03 09:37:32;;;;;;;10.33;8.37;;;;;;;3.14;80.83;94695.63;4947132;28;20367;-65
2022/04/03 09:40:32;;;;;;;9.53;8.00;;;;;;;2.84;80.93;94695.81;4966507;28;20654;-64
2022/04/03 09:43:27;;;;;;;9.10;7.73;;;;;;;3.44;83.92;94686.56;4971951;28;20201;-64
2022/04/03 09:46:13;;;;;;;10.37;8.20;;;;;;;2.82;81.20;94690.06;4965455;28;20220;-64
2022/04/03 09:48:59;;;;;;;9.50;8.50;;;;;;;3.63;81.21;94704.69;4961046;28;20709;-65
2022/04/03 09:51:45;;;;;;;7.63;6.87;;;;;;;4.15;76.31;94700.09;4963334;28;20201;-65
2022/04/03 09:54:31;;;;;;;8.03;7.23;;;;;;;5.18;70.48;94698.31;4971120;28;20284;-65
2022/04/03 09:57:20;;;;;;;7.97;6.80;;;;;;;5.03;68.01;94692.50;4968716;28;20213;-65
2022/04/03 10:00:07;;;;;;;7.27;6.40;;;;;;;5.74;65.89;94692.09;4965259;28;20193;-65
2022/04/03 10:02:59;;;;;;;7.90;6.30;;;;;;;5.86;66.49;94696.03;4956239;28;20197;-65
2022/04/03 10:05:45;;;;;;;9.20;7.40;;;;;;;5.38;68.98;94691.56;4962935;28;20562;-65
2022/04/03 10:08:32;;;;;;;8.00;6.87;;;;;;;3.89;72.56;94694.88;4950325;29;20212;-65
2022/04/03 10:11:19;;;;;;;7.43;6.73;;;;;;;2.27;83.41;94700.63;4953118;28;20196;-65
2022/04/03 10:14:06;;;;;;;7.20;6.47;;;;;;;1.18;89.95;94697.47;4969348;28;20193;-65
2022/04/03 10:16:51;;;;;;;7.23;6.53;;;;;;;0.79;98.12;94699.81;4969074;28;20221;-65
2022/04/03 10:19:37;;;;;;;7.97;6.57;;;;;;;0.35;99.73;94702.53;4961759;28;20199;-64
2022/04/03 10:22:31;;;;;;;8.00;6.97;;;;;;;0.29;100.00;94706.78;4967755;28;20189;-65
2022/04/03 10:25:24;;;;;;;10.00;7.63;;;;;;;0.26;100.00;94699.53;4954821;28;20193;-64
2022/04/03 10:28:12;;;;;;;10.77;8.43;;;;;;;0.36;100.00;94706.72;4969604;28;20215;-65
2022/04/03 10:31:00;;;;;;;9.37;8.37;;;;;;;0.67;100.00;94705.69;4950137;28;20337;-64
2022/04/03 10:33:51;;;;;;;9.13;7.27;;;;;;;0.99;100.00;94705.38;4975775;28;20197;-64
2022/04/03 10:36:37;;;;;;;10.00;7.23;;;;;;;1.09;100.00;94699.09;4948972;28;20356;-65
2022/04/03 10:39:29;;;;;;;8.20;7.20;;;;;;;1.74;100.00;94708.69;4950515;28;20197;-64
2022/04/03 10:42:20;;;;;;;7.53;6.77;;;;;;;1.52;93.46;94702.81;4952005;28;20197;-65
2022/04/03 10:45:12;;;;;;;11.27;6.93;;;;;;;1.54;89.52;94700.50;4922993;29;20201;-65
2022/04/03 10:48:20;;;;;;;8.07;7.30;;;;;;;2.08;92.08;94707.44;4959112;28;20264;-64
2022/04/03 10:51:21;;;;;;;7.30;6.60;;;;;;;2.96;88.66;94699.81;4964082;28;20510;-65
2022/04/03 10:54:07;;;;;;;8.63;6.73;;;;;;;3.02;81.91;94693.53;4950546;29;20246;-65
2022/04/03 10:56:52;;;;;;;10.93;6.67;;;;;;;3.14;84.29;94694.88;4949391;29;20216;-66
2022/04/03 10:59:38;;;;;;;6.80;5.57;;;;;;;2.57;82.05;94699.72;4962348;28;20196;-65
2022/04/03 11:02:24;;;;;;;6.57;5.87;;;;;;;2.27;84.20;94684.44;4954590;28;20570;-65
2022/04/03 11:05:22;;;;;;;7.17;6.33;;;;;;;2.23;85.22;94700.66;4976417;28;20216;-65
2022/04/03 11:08:08;;;;;;;9.97;5.80;;;;;;;2.39;82.99;94708.13;4971916;28;20213;-65
2022/04/03 11:10:58;;;;;;;9.13;6.70;;;;;;;2.78;82.50;94699.38;4954659;28;20194;-64
2022/04/03 11:13:44;;;;;;;7.30;6.03;;;;;;;2.96;78.77;94697.91;4966761;28;20228;-64
2022/04/03 11:16:49;;;;;;;8.30;5.63;;;;;;;3.20;77.58;94696.69;4957982;28;20227;-64
2022/04/03 11:19:39;;;;;;;5.80;5.20;;;;;;;3.76;72.29;94700.16;4958931;28;20280;-64
2022/04/03 11:22:26;;;;;;;6.00;5.33;;;;;;;3.98;73.61;94700.47;4957004;28;20218;-65
2022/04/03 11:25:12;;;;;;;8.17;6.40;;;;;;;4.37;69.82;94694.94;4972929;28;20786;-65
2022/04/03 11:27:58;;;;;;;6.37;5.40;;;;;;;3.97;69.48;94701.66;4971286;28;20216;-65
2022/04/03 11:30:45;;;;;;;6.53;5.33;;;;;;;3.96;70.54;94695.50;4953292;29;20213;-65
2022/04/03 11:33:32;;;;;;;5.50;4.90;;;;;;;4.74;68.07;94694.41;4930993;28;20193;-65
2022/04/03 11:36:23;;;;;;;6.77;4.70;;;;;;;3.98;68.37;94693.13;4963075;28;20296;-65
2022/04/03 11:39:09;;;;;;;6.20;4.00;;;;;;;3.97;70.50;94696.25;4954453;28;20185;-65
2022/04/03 11:41:55;;;;;;;5.33;4.37;;;;;;;4.27;70.54;94695.94;4972829;28;20204;-65
2022/04/03 11:44:51;;;;;;;4.67;4.27;;;;;;;4.89;67.52;94695.56;4971679;28;20197;-65
2022/04/03 11:47:37;;;;;;;5.60;4.90;;;;;;;4.65;69.33;94691.53;4948642;28;20228;-65
2022/04/03 11:50:23;;;;;;;7.57;5.10;;;;;;;3.78;72.10;94700.53;4955701;28;20297;-65
2022/04/03 11:53:10;;;;;;;5.60;5.00;;;;;;;3.34;76.71;94698.34;4970696;28;20630;-65
2022/04/03 11:55:56;;;;;;;6.53;5.40;;;;;;;3.46;79.64;94695.03;4967870;28;20193;-65
2022/04/03 11:58:53;;;;;;;6.13;5.53;;;;;;;3.96;77.01;94692.00;4955039;28;20232;-64
2022/04/03 12:01:50;;;;;;;10.20;6.20;;;;;;;4.19;75.72;94698.03;4965459;28;20185;-64
2022/04/03 12:04:40;;;;;;;6.80;5.63;;;;;;;5.02;74.44;94695.66;4968804;28;20289;-65
2022/04/03 12:07:29;;;;;;;5.27;4.77;;;;;;;4.58;67.27;94694.44;4969023;28;20239;-64
2022/04/03 12:10:27;;;;;;;5.30;4.80;;;;;;;4.90;66.81;94699.81;4971219;28;20293;-64
2022/04/03 12:13:17;;;;;;;5.40;4.90;;;;;;;4.16;68.63;94692.72;4971995;28;20488;-65
2022/04/03 12:16:06;;;;;;;6.00;4.47;;;;;;;3.58;69.45;94691.69;4960940;28;20212;-65
2022/04/03 12:18:55;;;;;;;4.37;3.97;;;;;;;4.27;67.24;94685.91;4951468;28;20197;-65
2022/04/03 12:21:51;;;;;;;6.57;4.70;;;;;;;3.94;69.60;94697.09;4969541;28;20325;-65
2022/04/03 12:24:38;;;;;;;4.37;3.97;;;;;;;3.66;70.66;94701.16;4977438;28;20242;-64
2022/04/03 12:27:32;;;;;;;4.83;4.00;;;;;;;3.53;70.62;94697.53;4970443;28;20268;-65
2022/04/03 12:30:18;;;;;;;7.77;4.93;;;;;;;4.29;68.94;94696.28;4971323;28;20186;-64
2022/04/03 12:33:04;;;;;;;6.50;4.47;;;;;;;4.38;67.02;94682.94;4978113;28;20232;-65
2022/04/03 12:35:50;;;;;;;6.07;5.37;;;;;;;4.63;65.50;94691.97;4966471;28;20268;-65
2022/04/03 12:38:36;;;;;;;4.63;3.97;;;;;;;4.07;66.64;94681.75;4948383;28;20284;-64
2022/04/03 12:41:26;;;;;;;6.13;4.20;;;;;;;4.19;65.98;94695.34;4956827;28;20718;-64
2022/04/03 12:44:16;;;;;;;5.83;4.30;;;;;;;3.32;65.94;94687.19;4957828;28;20252;-65
2022/04/03 12:47:14;;;;;;;4.87;3.77;;;;;;;3.10;66.08;94694.94;4948334;28;20272;-64
2022/04/03 12:50:06;;;;;;;5.53;4.00;;;;;;;3.32;68.87;94689.91;4945879;28;20232;-64
2022/04/03 12:52:58;;;;;;;4.17;3.70;;;;;;;2.81;65.97;94698.56;4952469;29;20278;-64
2022/04/03 12:55:52;;;;;;;4.40;3.50;;;;;;;3.50;68.43;94691.06;4952633;29;20193;-64